WARM SPRINGS (USACE) (WRS)

Elevation: 440' · RUSSIAN R basin · Operator: US Army Corps of Engineers

Provisional data, subject to change.
Query executed Tuesday at 11:51:07

Select a sensor type for a plot of data.
Note: Reservoir Flows are daily averages.

Earlier

Date RES ELE    STORAGE    RES CHG    TOC STO    ABV TOC    OUTFLOW    INFLOW    PPT INC    TEMP MN    TEMP MX    EVP PAN   
 FEET   AF   AF   AF   AF   CFS   CFS   INCHES   DEG F   DEG F   INCHES  
11/07/2016 437.78 211662 -168 245000 -33338 105 25 0.00 49 72 0.05
11/08/2016 437.72 211519 -143 245000 -33481 105 39 0.05 51 75 0.05
11/09/2016 437.65 211356 -- 245000 -33644 105 28 0.00 52 74 0.05
11/10/2016 437.58 211184 -172 245000 -33816 105 23 0.00 52 78 0.06
11/11/2016 437.50 210994 -190 245000 -34006 105 13 0.00 51 71 0.04
11/12/2016 437.43 210825 -- 245000 -34175 105 24 0.00 10 21 0.04
11/13/2016 437.35 210639 -- 245000 -34361 105 16 0.00 9 23 0.05
11/14/2016 437.29 210493 -146 245000 -34507 105 36 0.00 9 23 0.05
11/15/2016 437.20 210271 -- 245000 -34729 106 -2 0.00 8 16 0.03
11/16/2016 437.12 210088 -183 245000 -34912 106 18 0.00 4 16 0.04
11/17/2016 437.05 209922 -166 245000 -35078 107 27 0.00 4 16 0.04
11/18/2016 436.97 209732 -190 245000 -35268 107 15 0.01 2 17 0.04
11/19/2016 437.99 212165 -- 245000 -32835 108 1336 2.27 9 14 0.02
11/20/2016 438.49 213364 -- 245000 -31636 108 715 0.90 8 16 0.03
11/21/2016 438.63 213701 337 245000 -31299 106 280 0.00 4 17 0.04
11/22/2016 438.75 213990 289 245000 -31010 106 255 0.46 4 14 0.03
11/23/2016 438.87 214279 289 245000 -30721 106 256 0.11 4 15 0.04
11/24/2016 438.92 214399 120 245000 -30601 106 170 0.00 2 14 0.03
11/25/2016 438.96 214496 97 245000 -30504 106 158 0.00 4 14 0.03
11/26/2016 439.41 215583 1087 245000 -29417 107 658 1.32 8 11 0.02
11/27/2016 439.79 216504 921 245000 -28496 106 574 0.05 5 14 0.03
11/28/2016 440.00 217015 511 245000 -27985 105 366 0.14 7 15 0.03
11/29/2016 440.08 217209 194 245000 -27791 104 205 0.00 4 16 0.04
11/30/2016 440.13 217331 122 245000 -27669 104 168 0.01 4 14 0.03
12/01/2016 440.16 217404 73 245000 -27596 104 144 0.00 4 14 0.04
12/02/2016 440.16 217404 0 245000 -27596 104 108 0.00 5 16 0.04
12/03/2016 440.14 217355 -49 245000 -27645 103 83 0.00 8 18 0.04
12/04/2016 440.12 217306 -49 245000 -27694 104 83 0.00 5 18 0.04
12/05/2016 440.08 217209 -97 245000 -27791 104 58 0.00 5 13 0.03
12/06/2016 -- -- -- -- -- -- -- -- -- -- --

Later | Latest

Warning! This data is preliminary and subject to revision.

Show WRS Map | Plot WRS Data | 1 Month WRS Data | Real-Time WRS Data | WRS Info